sensor_id;sensor_type;location;lat;lon;timestamp;pressure;altitude;pressure_sealevel;temperature;humidity
70506;BME280;58032;49.820;6.274;2022-12-07T00:01:31;97786.34;;;1.01;100.00
70506;BME280;58032;49.820;6.274;2022-12-07T00:04:01;97787.16;;;1.05;100.00
70506;BME280;58032;49.820;6.274;2022-12-07T00:06:36;97791.13;;;1.04;100.00
70506;BME280;58032;49.820;6.274;2022-12-07T00:09:05;97785.97;;;1.06;100.00
70506;BME280;58032;49.820;6.274;2022-12-07T00:11:32;97792.72;;;1.05;100.00
70506;BME280;58032;49.820;6.274;2022-12-07T00:14:02;97786.38;;;1.08;100.00
70506;BME280;58032;49.820;6.274;2022-12-07T00:16:31;97785.56;;;1.04;100.00
70506;BME280;58032;49.820;6.274;2022-12-07T00:18:58;97785.16;;;1.06;100.00
70506;BME280;58032;49.820;6.274;2022-12-07T00:21:34;97785.59;;;1.12;100.00
70506;BME280;58032;49.820;6.274;2022-12-07T00:24:03;97772.94;;;1.18;100.00
70506;BME280;58032;49.820;6.274;2022-12-07T00:26:32;97770.56;;;1.16;100.00
70506;BME280;58032;49.820;6.274;2022-12-07T00:29:03;97767.38;;;1.18;100.00
70506;BME280;58032;49.820;6.274;2022-12-07T00:31:35;97762.63;;;1.15;100.00
70506;BME280;58032;49.820;6.274;2022-12-07T00:34:06;97756.69;;;1.16;100.00
70506;BME280;58032;49.820;6.274;2022-12-07T00:36:33;97762.63;;;1.15;100.00
70506;BME280;58032;49.820;6.274;2022-12-07T00:39:00;97753.91;;;1.09;100.00
70506;BME280;58032;49.820;6.274;2022-12-07T00:41:28;97758.22;;;0.99;100.00
70506;BME280;58032;49.820;6.274;2022-12-07T00:43:55;97757.41;;;0.95;100.00
70506;BME280;58032;49.820;6.274;2022-12-07T00:46:22;97755.44;;;0.92;100.00
70506;BME280;58032;49.820;6.274;2022-12-07T00:48:50;97755.44;;;0.92;100.00
70506;BME280;58032;49.820;6.274;2022-12-07T00:51:19;97749.91;;;0.92;100.00
70506;BME280;58032;49.820;6.274;2022-12-07T00:53:47;97749.09;;;0.95;100.00
70506;BME280;58032;49.820;6.274;2022-12-07T00:56:22;97747.94;;;1.03;100.00
70506;BME280;58032;49.820;6.274;2022-12-07T00:58:58;97737.25;;;1.05;100.00
70506;BME280;58032;49.820;6.274;2022-12-07T01:01:30;97737.63;;;1.07;100.00
70506;BME280;58032;49.820;6.274;2022-12-07T01:03:58;97739.63;;;1.14;100.00
70506;BME280;58032;49.820;6.274;2022-12-07T01:06:25;97751.47;;;1.04;100.00
70506;BME280;58032;49.820;6.274;2022-12-07T01:08:53;97752.31;;;1.08;100.00
70506;BME280;58032;49.820;6.274;2022-12-07T01:11:26;97747.94;;;1.10;100.00
70506;BME280;58032;49.820;6.274;2022-12-07T01:13:55;97754.69;;;1.09;100.00
70506;BME280;58032;49.820;6.274;2022-12-07T01:16:25;97755.09;;;1.12;100.00
70506;BME280;58032;49.820;6.274;2022-12-07T01:18:54;97747.53;;;1.05;100.00
70506;BME280;58032;49.820;6.274;2022-12-07T01:21:27;97743.19;;;1.07;100.00
70506;BME280;58032;49.820;6.274;2022-12-07T01:23:57;97755.09;;;1.08;100.00
70506;BME280;58032;49.820;6.274;2022-12-07T01:26:25;97749.13;;;1.06;100.00
70506;BME280;58032;49.820;6.274;2022-12-07T01:28:52;97722.97;;;0.96;100.00
70506;BME280;58032;49.820;6.274;2022-12-07T01:31:23;97749.50;;;1.01;100.00
70506;BME280;58032;49.820;6.274;2022-12-07T01:33:53;97755.47;;;0.99;100.00
70506;BME280;58032;49.820;6.274;2022-12-07T01:36:29;97764.16;;;1.05;100.00
70506;BME280;58032;49.820;6.274;2022-12-07T01:38:59;97763.38;;;1.01;100.00
70506;BME280;58032;49.820;6.274;2022-12-07T01:41:29;97761.81;;;1.07;100.00
70506;BME280;58032;49.820;6.274;2022-12-07T01:46:52;97755.50;;;1.10;100.00
70506;BME280;58032;49.820;6.274;2022-12-07T01:49:35;97747.19;;;1.14;100.00
70506;BME280;58032;49.820;6.274;2022-12-07T01:52:13;97747.16;;;1.06;100.00
70506;BME280;58032;49.820;6.274;2022-12-07T01:54:43;97746.38;;;1.09;100.00
70506;BME280;58032;49.820;6.274;2022-12-07T01:57:11;97742.00;;;1.08;100.00
70506;BME280;58032;49.820;6.274;2022-12-07T01:59:41;97738.44;;;1.12;100.00
70506;BME280;58032;49.820;6.274;2022-12-07T02:02:25;97746.34;;;1.06;100.00
70506;BME280;58032;49.820;6.274;2022-12-07T02:04:55;97733.28;;;1.06;100.00
70506;BME280;58032;49.820;6.274;2022-12-07T02:07:25;97739.22;;;1.01;100.00
70506;BME280;58032;49.820;6.274;2022-12-07T02:09:53;97727.75;;;1.06;100.00
70506;BME280;58032;49.820;6.274;2022-12-07T02:12:22;97717.84;;;1.02;100.00
70506;BME280;58032;49.820;6.274;2022-12-07T02:14:50;97719.78;;;0.98;100.00
70506;BME280;58032;49.820;6.274;2022-12-07T02:17:25;97719.03;;;1.04;100.00
70506;BME280;58032;49.820;6.274;2022-12-07T02:23:02;97718.63;;;1.02;100.00
70506;BME280;58032;49.820;6.274;2022-12-07T02:28:29;97735.25;;;0.99;100.00
70506;BME280;58032;49.820;6.274;2022-12-07T02:31:04;97719.81;;;1.05;100.00
70506;BME280;58032;49.820;6.274;2022-12-07T02:33:45;97726.16;;;1.09;100.00
70506;BME280;58032;49.820;6.274;2022-12-07T02:36:27;97725.34;;;1.08;100.00
70506;BME280;58032;49.820;6.274;2022-12-07T02:39:10;97722.19;;;1.06;100.00
70506;BME280;58032;49.820;6.274;2022-12-07T02:41:51;97717.44;;;1.03;100.00
70506;BME280;58032;49.820;6.274;2022-12-07T02:44:22;97717.47;;;1.18;100.00
70506;BME280;58032;49.820;6.274;2022-12-07T02:46:56;97720.63;;;1.16;100.00
70506;BME280;58032;49.820;6.274;2022-12-07T02:49:25;97714.69;;;1.29;100.00
70506;BME280;58032;49.820;6.274;2022-12-07T02:51:54;97713.91;;;1.28;100.00
70506;BME280;58032;49.820;6.274;2022-12-07T02:54:21;97714.28;;;1.26;100.00
70506;BME280;58032;49.820;6.274;2022-12-07T03:05:28;97695.28;;;1.29;100.00
70506;BME280;58032;49.820;6.274;2022-12-07T03:10:38;97702.44;;;1.37;100.00
70506;BME280;58032;49.820;6.274;2022-12-07T03:15:57;97701.25;;;1.38;100.00
70506;BME280;58032;49.820;6.274;2022-12-07T03:18:31;97695.28;;;1.36;100.00
70506;BME280;58032;49.820;6.274;2022-12-07T03:21:02;97686.59;;;1.37;100.00
70506;BME280;58032;49.820;6.274;2022-12-07T03:23:33;97695.69;;;1.34;100.00
70506;BME280;58032;49.820;6.274;2022-12-07T03:26:02;97696.09;;;1.33;100.00
70506;BME280;58032;49.820;6.274;2022-12-07T03:28:33;97692.50;;;1.36;100.00
70506;BME280;58032;49.820;6.274;2022-12-07T03:31:12;97690.56;;;1.40;100.00
70506;BME280;58032;49.820;6.274;2022-12-07T03:33:51;97691.34;;;1.37;100.00
70506;BME280;58032;49.820;6.274;2022-12-07T03:36:24;97691.34;;;1.40;100.00
70506;BME280;58032;49.820;6.274;2022-12-07T03:39:57;97683.41;;;1.35;100.00
70506;BME280;58032;49.820;6.274;2022-12-07T03:42:03;97684.19;;;1.39;100.00
70506;BME280;58032;49.820;6.274;2022-12-07T03:44:33;97682.59;;;1.42;100.00
70506;BME280;58032;49.820;6.274;2022-12-07T03:47:05;97689.75;;;1.43;100.00
70506;BME280;58032;49.820;6.274;2022-12-07T03:54:58;97684.19;;;1.61;100.00
70506;BME280;58032;49.820;6.274;2022-12-07T03:57:28;97685.00;;;1.58;100.00
70506;BME280;58032;49.820;6.274;2022-12-07T03:59:57;97686.59;;;1.59;100.00
70506;BME280;58032;49.820;6.274;2022-12-07T04:02:27;97685.78;;;1.48;100.00
70506;BME280;58032;49.820;6.274;2022-12-07T04:04:55;97686.19;;;1.57;100.00
70506;BME280;58032;49.820;6.274;2022-12-07T04:07:22;97692.53;;;1.57;100.00
70506;BME280;58032;49.820;6.274;2022-12-07T04:09:49;97680.22;;;1.55;100.00
70506;BME280;58032;49.820;6.274;2022-12-07T04:12:16;97682.22;;;1.44;100.00
70506;BME280;58032;49.820;6.274;2022-12-07T04:14:43;97683.00;;;1.51;100.00
70506;BME280;58032;49.820;6.274;2022-12-07T04:17:10;97681.03;;;1.52;100.00
70506;BME280;58032;49.820;6.274;2022-12-07T04:19:36;97679.47;;;1.51;100.00
70506;BME280;58032;49.820;6.274;2022-12-07T04:22:04;97683.81;;;1.52;100.00
70506;BME280;58032;49.820;6.274;2022-12-07T04:24:32;97685.00;;;1.54;100.00
70506;BME280;58032;49.820;6.274;2022-12-07T04:26:59;97682.22;;;1.51;100.00
70506;BME280;58032;49.820;6.274;2022-12-07T04:29:26;97686.59;;;1.48;100.00
70506;BME280;58032;49.820;6.274;2022-12-07T04:31:53;97689.38;;;1.48;100.00
70506;BME280;58032;49.820;6.274;2022-12-07T04:34:20;97690.56;;;1.44;100.00
70506;BME280;58032;49.820;6.274;2022-12-07T04:36:47;97686.59;;;1.48;100.00
70506;BME280;58032;49.820;6.274;2022-12-07T04:39:34;97677.88;;;1.46;100.00
70506;BME280;58032;49.820;6.274;2022-12-07T04:42:02;97685.00;;;1.44;100.00
70506;BME280;58032;49.820;6.274;2022-12-07T04:44:39;97687.38;;;1.41;100.00
70506;BME280;58032;49.820;6.274;2022-12-07T04:47:25;97679.44;;;1.36;100.00
70506;BME280;58032;49.820;6.274;2022-12-07T04:50:12;97678.66;;;1.39;100.00
70506;BME280;58032;49.820;6.274;2022-12-07T04:52:58;97682.59;;;1.35;100.00
70506;BME280;58032;49.820;6.274;2022-12-07T04:55:24;97675.88;;;1.32;100.00
70506;BME280;58032;49.820;6.274;2022-12-07T04:57:51;97682.59;;;1.31;100.00
70506;BME280;58032;49.820;6.274;2022-12-07T05:00:18;97688.56;;;1.30;100.00
70506;BME280;58032;49.820;6.274;2022-12-07T05:02:45;97681.03;;;1.34;100.00
70506;BME280;58032;49.820;6.274;2022-12-07T05:05:12;97679.44;;;1.29;100.00
70506;BME280;58032;49.820;6.274;2022-12-07T05:07:39;97681.03;;;1.37;100.00
70506;BME280;58032;49.820;6.274;2022-12-07T05:10:06;97683.41;;;1.28;100.00
70506;BME280;58032;49.820;6.274;2022-12-07T05:12:33;97681.81;;;1.27;100.00
70506;BME280;58032;49.820;6.274;2022-12-07T05:15:00;97681.81;;;1.27;100.00
70506;BME280;58032;49.820;6.274;2022-12-07T05:17:27;97678.63;;;1.29;100.00
70506;BME280;58032;49.820;6.274;2022-12-07T05:19:54;97686.56;;;1.26;100.00
70506;BME280;58032;49.820;6.274;2022-12-07T05:22:20;97686.97;;;1.25;100.00
70506;BME280;58032;49.820;6.274;2022-12-07T05:24:48;97682.59;;;1.31;100.00
70506;BME280;58032;49.820;6.274;2022-12-07T05:27:14;97683.41;;;1.32;100.00
70506;BME280;58032;49.820;6.274;2022-12-07T05:29:41;97681.81;;;1.34;100.00
70506;BME280;58032;49.820;6.274;2022-12-07T05:32:08;97679.03;;;1.23;100.00
70506;BME280;58032;49.820;6.274;2022-12-07T05:34:35;97681.41;;;1.25;100.00
70506;BME280;58032;49.820;6.274;2022-12-07T05:37:02;97681.81;;;1.23;100.00
70506;BME280;58032;49.820;6.274;2022-12-07T05:39:29;97679.44;;;1.25;100.00
70506;BME280;58032;49.820;6.274;2022-12-07T05:41:56;97675.44;;;1.19;100.00
70506;BME280;58032;49.820;6.274;2022-12-07T05:44:43;97682.59;;;1.17;100.00
70506;BME280;58032;49.820;6.274;2022-12-07T05:47:12;97682.59;;;1.17;100.00
70506;BME280;58032;49.820;6.274;2022-12-07T05:49:39;97675.84;;;1.18;100.00
70506;BME280;58032;49.820;6.274;2022-12-07T05:52:07;97681.81;;;1.20;100.00
70506;BME280;58032;49.820;6.274;2022-12-07T05:54:34;97679.44;;;1.18;100.00
70506;BME280;58032;49.820;6.274;2022-12-07T05:57:01;97680.63;;;1.21;100.00
70506;BME280;58032;49.820;6.274;2022-12-07T05:59:28;97682.59;;;1.24;100.00
70506;BME280;58032;49.820;6.274;2022-12-07T06:02:04;97689.72;;;1.25;100.00
70506;BME280;58032;49.820;6.274;2022-12-07T06:04:34;97677.06;;;1.24;100.00
70506;BME280;58032;49.820;6.274;2022-12-07T06:07:02;97685.00;;;1.22;100.00
70506;BME280;58032;49.820;6.274;2022-12-07T06:09:29;97688.94;;;1.21;100.00
70506;BME280;58032;49.820;6.274;2022-12-07T06:11:57;97691.31;;;1.30;100.00
70506;BME280;58032;49.820;6.274;2022-12-07T06:15:01;97686.59;;;1.37;100.00
70506;BME280;58032;49.820;6.274;2022-12-07T06:17:28;97687.78;;;1.40;100.00
70506;BME280;58032;49.820;6.274;2022-12-07T06:19:55;97682.59;;;1.38;100.00
70506;BME280;58032;49.820;6.274;2022-12-07T06:22:21;97681.81;;;1.34;100.00
70506;BME280;58032;49.820;6.274;2022-12-07T06:24:48;97688.16;;;1.35;100.00
70506;BME280;58032;49.820;6.274;2022-12-07T06:27:15;97681.03;;;1.30;100.00
70506;BME280;58032;49.820;6.274;2022-12-07T06:29:42;97684.19;;;1.25;100.00
70506;BME280;58032;49.820;6.274;2022-12-07T06:32:09;97686.59;;;1.30;100.00
70506;BME280;58032;49.820;6.274;2022-12-07T06:34:54;97682.22;;;1.29;100.00
70506;BME280;58032;49.820;6.274;2022-12-07T06:37:21;97687.38;;;1.27;100.00
70506;BME280;58032;49.820;6.274;2022-12-07T06:39:48;97685.78;;;1.30;100.00
70506;BME280;58032;49.820;6.274;2022-12-07T06:42:14;97688.16;;;1.35;100.00
70506;BME280;58032;49.820;6.274;2022-12-07T06:44:41;97686.19;;;1.28;100.00
70506;BME280;58032;49.820;6.274;2022-12-07T06:47:08;97683.81;;;1.34;100.00
70506;BME280;58032;49.820;6.274;2022-12-07T06:49:56;97690.16;;;1.34;100.00
70506;BME280;58032;49.820;6.274;2022-12-07T06:52:22;97693.31;;;1.44;100.00
70506;BME280;58032;49.820;6.274;2022-12-07T06:54:49;97687.38;;;1.45;100.00
70506;BME280;58032;49.820;6.274;2022-12-07T06:57:16;97690.94;;;1.46;100.00
70506;BME280;58032;49.820;6.274;2022-12-07T06:59:43;97684.19;;;1.50;100.00
70506;BME280;58032;49.820;6.274;2022-12-07T07:02:10;97694.91;;;1.52;100.00
70506;BME280;58032;49.820;6.274;2022-12-07T07:04:37;97685.78;;;1.55;100.00
70506;BME280;58032;49.820;6.274;2022-12-07T07:07:04;97691.34;;;1.58;100.00
70506;BME280;58032;49.820;6.274;2022-12-07T07:09:31;97687.38;;;1.60;100.00
70506;BME280;58032;49.820;6.274;2022-12-07T07:11:57;97687.78;;;1.62;100.00
70506;BME280;58032;49.820;6.274;2022-12-07T07:14:24;97689.75;;;1.61;100.00
70506;BME280;58032;49.820;6.274;2022-12-07T07:16:51;97690.16;;;1.60;100.00
70506;BME280;58032;49.820;6.274;2022-12-07T07:19:18;97688.97;;;1.64;100.00
70506;BME280;58032;49.820;6.274;2022-12-07T07:21:45;97686.19;;;1.53;100.00
70506;BME280;58032;49.820;6.274;2022-12-07T07:24:12;97685.78;;;1.55;100.00
70506;BME280;58032;49.820;6.274;2022-12-07T07:26:39;97696.88;;;1.58;100.00
70506;BME280;58032;49.820;6.274;2022-12-07T07:29:06;97703.66;;;1.65;100.00
70506;BME280;58032;49.820;6.274;2022-12-07T07:31:32;97699.28;;;1.71;100.00
70506;BME280;58032;49.820;6.274;2022-12-07T07:34:02;97695.31;;;1.76;100.00
70506;BME280;58032;49.820;6.274;2022-12-07T07:36:28;97700.06;;;1.79;100.00
70506;BME280;58032;49.820;6.274;2022-12-07T07:38:55;97708.00;;;1.84;100.00
70506;BME280;58032;49.820;6.274;2022-12-07T07:41:22;97698.84;;;1.94;100.00
70506;BME280;58032;49.820;6.274;2022-12-07T07:43:49;97709.56;;;1.92;100.00
70506;BME280;58032;49.820;6.274;2022-12-07T07:46:16;97706.41;;;1.90;100.00
70506;BME280;58032;49.820;6.274;2022-12-07T07:48:42;97706.00;;;1.88;100.00
70506;BME280;58032;49.820;6.274;2022-12-07T07:51:09;97713.94;;;1.86;100.00
70506;BME280;58032;49.820;6.274;2022-12-07T07:53:36;97704.81;;;1.93;100.00
70506;BME280;58032;49.820;6.274;2022-12-07T07:56:03;97711.56;;;1.92;100.00
70506;BME280;58032;49.820;6.274;2022-12-07T07:58:30;97713.53;;;1.95;100.00
70506;BME280;58032;49.820;6.274;2022-12-07T08:01:03;97713.91;;;2.00;100.00
70506;BME280;58032;49.820;6.274;2022-12-07T08:03:31;97727.00;;;2.03;100.00
70506;BME280;58032;49.820;6.274;2022-12-07T08:05:58;97721.06;;;2.05;100.00
70506;BME280;58032;49.820;6.274;2022-12-07T08:08:24;97726.22;;;2.07;100.00
70506;BME280;58032;49.820;6.274;2022-12-07T08:10:52;97727.00;;;2.11;100.00
70506;BME280;58032;49.820;6.274;2022-12-07T08:13:18;97720.28;;;2.01;100.00
70506;BME280;58032;49.820;6.274;2022-12-07T08:15:47;97724.63;;;2.13;100.00
70506;BME280;58032;49.820;6.274;2022-12-07T08:18:15;97719.06;;;2.20;100.00
70506;BME280;58032;49.820;6.274;2022-12-07T08:20:42;97715.84;;;2.32;100.00
70506;BME280;58032;49.820;6.274;2022-12-07T08:23:10;97718.66;;;2.18;100.00
70506;BME280;58032;49.820;6.274;2022-12-07T08:25:37;97722.63;;;2.10;100.00
70506;BME280;58032;49.820;6.274;2022-12-07T08:28:05;97721.88;;;2.02;100.00
70506;BME280;58032;49.820;6.274;2022-12-07T08:30:32;97724.66;;;1.98;100.00
70506;BME280;58032;49.820;6.274;2022-12-07T08:32:59;97732.59;;;1.89;100.00
70506;BME280;58032;49.820;6.274;2022-12-07T08:35:26;97727.81;;;1.86;100.00
70506;BME280;58032;49.820;6.274;2022-12-07T08:37:53;97731.00;;;1.88;100.00
70506;BME280;58032;49.820;6.274;2022-12-07T08:40:20;97716.69;;;1.89;100.00
70506;BME280;58032;49.820;6.274;2022-12-07T08:42:51;97723.06;;;1.90;100.00
70506;BME280;58032;49.820;6.274;2022-12-07T08:45:19;97723.44;;;1.92;100.00
70506;BME280;58032;49.820;6.274;2022-12-07T08:47:56;97722.66;;;1.95;100.00
70506;BME280;58032;49.820;6.274;2022-12-07T08:50:25;97719.47;;;2.00;100.00
70506;BME280;58032;49.820;6.274;2022-12-07T08:52:55;97728.59;;;2.04;100.00
70506;BME280;58032;49.820;6.274;2022-12-07T08:55:23;97721.44;;;2.07;100.00
70506;BME280;58032;49.820;6.274;2022-12-07T08:57:50;97718.25;;;2.09;100.00
70506;BME280;58032;49.820;6.274;2022-12-07T09:00:18;97715.06;;;2.32;100.00
70506;BME280;58032;49.820;6.274;2022-12-07T09:02:45;97713.81;;;2.55;100.00
70506;BME280;58032;49.820;6.274;2022-12-07T09:05:14;97701.09;;;2.53;100.00
70506;BME280;58032;49.820;6.274;2022-12-07T09:07:46;97707.41;;;2.61;100.00
70506;BME280;58032;49.820;6.274;2022-12-07T09:10:15;97711.72;;;2.77;100.00
70506;BME280;58032;49.820;6.274;2022-12-07T09:12:42;97715.72;;;2.76;100.00
70506;BME280;58032;49.820;6.274;2022-12-07T09:15:09;97710.13;;;2.72;100.00
70506;BME280;58032;49.820;6.274;2022-12-07T09:17:36;97705.28;;;2.94;100.00
70506;BME280;58032;49.820;6.274;2022-12-07T09:20:05;97713.22;;;2.96;100.00
70506;BME280;58032;49.820;6.274;2022-12-07T09:22:32;97711.63;;;2.91;100.00
70506;BME280;58032;49.820;6.274;2022-12-07T09:25:00;97709.69;;;2.88;100.00
70506;BME280;58032;49.820;6.274;2022-12-07T09:27:27;97713.16;;;3.07;100.00
70506;BME280;58032;49.820;6.274;2022-12-07T09:29:54;97715.09;;;3.17;100.00
70506;BME280;58032;49.820;6.274;2022-12-07T09:32:22;97714.75;;;3.08;100.00
70506;BME280;58032;49.820;6.274;2022-12-07T09:34:49;97708.03;;;3.01;100.00
70506;BME280;58032;49.820;6.274;2022-12-07T09:37:16;97707.25;;;3.01;100.00
70506;BME280;58032;49.820;6.274;2022-12-07T09:39:43;97703.91;;;3.24;100.00
70506;BME280;58032;49.820;6.274;2022-12-07T09:42:37;97701.03;;;3.39;100.00
70506;BME280;58032;49.820;6.274;2022-12-07T09:45:14;97697.84;;;3.40;100.00
70506;BME280;58032;49.820;6.274;2022-12-07T09:47:42;97707.75;;;3.45;100.00
70506;BME280;58032;49.820;6.274;2022-12-07T09:50:20;97700.19;;;3.45;100.00
70506;BME280;58032;49.820;6.274;2022-12-07T09:52:49;97700.72;;;3.29;100.00
70506;BME280;58032;49.820;6.274;2022-12-07T09:55:23;97704.22;;;3.41;100.00
70506;BME280;58032;49.820;6.274;2022-12-07T09:57:52;97707.91;;;3.76;100.00
70506;BME280;58032;49.820;6.274;2022-12-07T10:00:21;97698.50;;;4.04;100.00
70506;BME280;58032;49.820;6.274;2022-12-07T10:02:58;97689.84;;;3.95;100.00
70506;BME280;58032;49.820;6.274;2022-12-07T10:05:30;97685.88;;;3.92;100.00
70506;BME280;58032;49.820;6.274;2022-12-07T10:07:57;97677.81;;;3.60;100.00
70506;BME280;58032;49.820;6.274;2022-12-07T10:10:29;97679.16;;;3.41;100.00
70506;BME280;58032;49.820;6.274;2022-12-07T10:13:06;97674.84;;;3.32;100.00
70506;BME280;58032;49.820;6.274;2022-12-07T10:15:54;97674.19;;;3.14;100.00
70506;BME280;58032;49.820;6.274;2022-12-07T10:18:37;97680.47;;;3.25;100.00
70506;BME280;58032;49.820;6.274;2022-12-07T10:23:36;97677.19;;;3.38;100.00
70506;BME280;58032;49.820;6.274;2022-12-07T10:29:32;97666.19;;;3.16;100.00
70506;BME280;58032;49.820;6.274;2022-12-07T10:32:32;97669.91;;;2.98;100.00
70506;BME280;58032;49.820;6.274;2022-12-07T10:37:48;97663.03;;;3.17;100.00
70506;BME280;58032;49.820;6.274;2022-12-07T10:40:32;97661.53;;;3.06;100.00
70506;BME280;58032;49.820;6.274;2022-12-07T10:43:20;97653.44;;;3.22;100.00
70506;BME280;58032;49.820;6.274;2022-12-07T10:48:40;97649.72;;;3.40;100.00
70506;BME280;58032;49.820;6.274;2022-12-07T10:53:50;97653.31;;;3.40;100.00
70506;BME280;58032;49.820;6.274;2022-12-07T10:56:44;97647.69;;;3.47;100.00
70506;BME280;58032;49.820;6.274;2022-12-07T10:59:41;97641.84;;;3.80;100.00
70506;BME280;58032;49.820;6.274;2022-12-07T11:18:27;97627.22;;;4.07;100.00
70506;BME280;58032;49.820;6.274;2022-12-07T11:21:17;97620.72;;;4.21;100.00
70506;BME280;58032;49.820;6.274;2022-12-07T11:24:07;97609.44;;;4.32;100.00
70506;BME280;58032;49.820;6.274;2022-12-07T11:26:55;97610.69;;;4.27;100.00
70506;BME280;58032;49.820;6.274;2022-12-07T11:29:41;97608.13;;;4.40;100.00
70506;BME280;58032;49.820;6.274;2022-12-07T11:32:24;97606.00;;;4.20;100.00
70506;BME280;58032;49.820;6.274;2022-12-07T11:37:49;97606.72;;;4.24;100.00
70506;BME280;58032;49.820;6.274;2022-12-07T11:40:26;97605.28;;;4.12;100.00
70506;BME280;58032;49.820;6.274;2022-12-07T11:43:13;97604.31;;;4.26;100.00
70506;BME280;58032;49.820;6.274;2022-12-07T11:45:44;97603.56;;;4.22;100.00
70506;BME280;58032;49.820;6.274;2022-12-07T11:48:22;97599.75;;;4.09;100.00
70506;BME280;58032;49.820;6.274;2022-12-07T11:50:56;97601.97;;;3.90;100.00
70506;BME280;58032;49.820;6.274;2022-12-07T11:56:06;97596.84;;;4.20;100.00
70506;BME280;58032;49.820;6.274;2022-12-07T11:58:53;97595.19;;;4.22;100.00
70506;BME280;58032;49.820;6.274;2022-12-07T12:03:56;97600.28;;;3.96;100.00
70506;BME280;58032;49.820;6.274;2022-12-07T12:06:24;97591.72;;;3.80;100.00
70506;BME280;58032;49.820;6.274;2022-12-07T12:14:52;97591.28;;;3.82;100.00
70506;BME280;58032;49.820;6.274;2022-12-07T12:22:48;97593.41;;;4.08;100.00
70506;BME280;58032;49.820;6.274;2022-12-07T12:25:29;97590.06;;;4.21;100.00
70506;BME280;58032;49.820;6.274;2022-12-07T12:27:58;97582.66;;;4.07;100.00
70506;BME280;58032;49.820;6.274;2022-12-07T12:30:35;97587.00;;;4.08;100.00
70506;BME280;58032;49.820;6.274;2022-12-07T12:35:34;97570.56;;;4.52;100.00
70506;BME280;58032;49.820;6.274;2022-12-07T12:38:28;97567.22;;;4.60;100.00
70506;BME280;58032;49.820;6.274;2022-12-07T12:41:00;97558.84;;;5.15;100.00
70506;BME280;58032;49.820;6.274;2022-12-07T12:43:48;97558.53;;;5.10;100.00
70506;BME280;58032;49.820;6.274;2022-12-07T12:51:43;97550.59;;;5.08;100.00
70506;BME280;58032;49.820;6.274;2022-12-07T12:54:15;97548.56;;;4.85;100.00
70506;BME280;58032;49.820;6.274;2022-12-07T13:02:21;97548.97;;;4.28;100.00
70506;BME280;58032;49.820;6.274;2022-12-07T13:08:01;97540.41;;;4.43;100.00
70506;BME280;58032;49.820;6.274;2022-12-07T13:10:40;97535.00;;;4.59;100.00
70506;BME280;58032;49.820;6.274;2022-12-07T13:28:48;97519.38;;;4.66;100.00
70506;BME280;58032;49.820;6.274;2022-12-07T13:34:02;97508.81;;;4.22;100.00
70506;BME280;58032;49.820;6.274;2022-12-07T13:36:37;97518.22;;;4.05;100.00
70506;BME280;58032;49.820;6.274;2022-12-07T13:39:17;97505.28;;;4.18;100.00
70506;BME280;58032;49.820;6.274;2022-12-07T13:41:46;97506.03;;;4.22;100.00
70506;BME280;58032;49.820;6.274;2022-12-07T13:44:16;97505.38;;;4.11;100.00
70506;BME280;58032;49.820;6.274;2022-12-07T13:49:20;97504.13;;;4.16;100.00
70506;BME280;58032;49.820;6.274;2022-12-07T13:51:48;97498.47;;;4.50;100.00
70506;BME280;58032;49.820;6.274;2022-12-07T13:54:15;97498.00;;;4.55;100.00
70506;BME280;58032;49.820;6.274;2022-12-07T13:56:42;97492.09;;;4.77;100.00
70506;BME280;58032;49.820;6.274;2022-12-07T13:59:23;97486.25;;;4.68;100.00
70506;BME280;58032;49.820;6.274;2022-12-07T14:01:52;97487.94;;;4.62;100.00
70506;BME280;58032;49.820;6.274;2022-12-07T14:04:34;97488.00;;;4.58;100.00
70506;BME280;58032;49.820;6.274;2022-12-07T14:07:26;97495.53;;;4.34;100.00
70506;BME280;58032;49.820;6.274;2022-12-07T14:10:01;97492.94;;;4.19;100.00
70506;BME280;58032;49.820;6.274;2022-12-07T14:12:30;97500.81;;;3.93;100.00
70506;BME280;58032;49.820;6.274;2022-12-07T14:14:59;97494.97;;;3.84;100.00
70506;BME280;58032;49.820;6.274;2022-12-07T14:17:27;97505.91;;;3.68;100.00
70506;BME280;58032;49.820;6.274;2022-12-07T14:19:56;97505.91;;;3.99;100.00
70506;BME280;58032;49.820;6.274;2022-12-07T14:22:27;97501.25;;;4.23;100.00
70506;BME280;58032;49.820;6.274;2022-12-07T14:24:59;97501.19;;;4.26;100.00
70506;BME280;58032;49.820;6.274;2022-12-07T14:27:32;97498.88;;;4.21;100.00
70506;BME280;58032;49.820;6.274;2022-12-07T14:30:01;97511.75;;;4.11;100.00
70506;BME280;58032;49.820;6.274;2022-12-07T14:32:29;97503.44;;;4.08;100.00
70506;BME280;58032;49.820;6.274;2022-12-07T14:35:07;97506.31;;;4.01;100.00
70506;BME280;58032;49.820;6.274;2022-12-07T14:37:34;97507.25;;;3.90;100.00
70506;BME280;58032;49.820;6.274;2022-12-07T14:40:01;97511.53;;;3.95;100.00
70506;BME280;58032;49.820;6.274;2022-12-07T14:42:30;97507.28;;;3.87;100.00
70506;BME280;58032;49.820;6.274;2022-12-07T14:44:58;97504.91;;;3.85;100.00
70506;BME280;58032;49.820;6.274;2022-12-07T14:47:26;97503.41;;;3.77;100.00
70506;BME280;58032;49.820;6.274;2022-12-07T14:50:15;97512.22;;;3.72;100.00
70506;BME280;58032;49.820;6.274;2022-12-07T14:52:43;97510.84;;;3.53;100.00
70506;BME280;58032;49.820;6.274;2022-12-07T14:55:31;97505.94;;;3.64;100.00
70506;BME280;58032;49.820;6.274;2022-12-07T14:57:58;97502.84;;;3.58;100.00
70506;BME280;58032;49.820;6.274;2022-12-07T15:00:27;97506.06;;;3.53;100.00
70506;BME280;58032;49.820;6.274;2022-12-07T15:02:55;97503.75;;;3.44;100.00
70506;BME280;58032;49.820;6.274;2022-12-07T15:05:22;97511.03;;;3.35;100.00
70506;BME280;58032;49.820;6.274;2022-12-07T15:07:50;97497.19;;;3.27;100.00
70506;BME280;58032;49.820;6.274;2022-12-07T15:10:20;97500.50;;;3.11;100.00
70506;BME280;58032;49.820;6.274;2022-12-07T15:12:49;97504.22;;;2.97;100.00
70506;BME280;58032;49.820;6.274;2022-12-07T15:15:16;97505.84;;;2.91;100.00
70506;BME280;58032;49.820;6.274;2022-12-07T15:17:43;97495.22;;;2.79;100.00